Time;durP1;ratioP1;P1;durP2;ratioP2;P2;SDS_P1;SDS_P2;PMS_P1;PMS_P2;Temp;Humidity;BMP_temperature;BMP_pressure;BME280_temperature;BME280_humidity;BME280_pressure;Samples;Min_cycle;Max_cycle;Signal;HPM_P1;HPM_P2
2023/09/16 00:01:56;;;;;;;;;1.00;1.00;;;;;-143.90;87.45;75604.34;4913073;28;102244;-74
2023/09/16 00:04:26;;;;;;;;;1.75;1.75;;;;;-143.90;87.93;75610.53;4895469;28;102241;-73
2023/09/16 00:06:53;;;;;;;;;1.00;1.00;;;;;-143.90;87.77;75622.94;4925330;28;103208;-74
2023/09/16 00:09:20;;;;;;;;;2.50;1.00;;;;;-143.90;88.41;75614.66;4920057;28;102277;-74
2023/09/16 00:11:47;;;;;;;;;2.75;2.00;;;;;-143.90;88.90;75622.94;4919112;28;102434;-73
2023/09/16 00:14:18;;;;;;;;;1.00;1.00;;;;;-143.90;88.87;75631.22;4915719;28;103326;-72
2023/09/16 00:16:45;;;;;;;;;0.50;0.50;;;;;-143.90;88.59;75629.13;4919682;28;104192;-73
2023/09/16 00:19:12;;;;;;;;;1.75;1.75;;;;;-143.90;90.04;75647.75;4926345;28;102778;-74
2023/09/16 00:21:40;;;;;;;;;5.00;1.50;;;;;-143.90;90.94;75656.03;4903353;28;102012;-74
2023/09/16 00:24:11;;;;;;;;;1.75;1.00;;;;;-143.90;91.53;75651.88;4923544;28;102405;-73
2023/09/16 00:26:39;;;;;;;;;2.00;1.00;;;;;-143.90;91.86;75670.50;4921121;28;105875;-73
2023/09/16 00:29:06;;;;;;;;;2.50;2.50;;;;;-143.90;91.58;75668.44;4922100;28;103539;-73
2023/09/16 00:31:34;;;;;;;;;1.75;1.75;;;;;-143.90;90.11;75656.03;4926842;28;102290;-72
2023/09/16 00:34:01;;;;;;;;;1.50;1.00;;;;;-143.90;89.56;75658.09;4924741;28;102635;-74
2023/09/16 00:36:28;;;;;;;;;1.75;1.00;;;;;-143.90;89.59;75662.22;4920081;28;103293;-73
2023/09/16 00:38:55;;;;;;;;;0.00;0.00;;;;;-143.90;90.23;75678.75;4921808;28;103968;-74
2023/09/16 00:41:22;;;;;;;;;2.00;1.50;;;;;-143.90;89.30;75670.50;4922598;28;102127;-72
2023/09/16 00:43:49;;;;;;;;;1.00;1.00;;;;;-143.90;89.10;75676.69;4924163;28;102256;-73
2023/09/16 00:46:16;;;;;;;;;2.50;1.75;;;;;-143.90;88.81;75680.84;4900452;28;103135;-73
2023/09/16 00:48:45;;;;;;;;;1.25;1.25;;;;;-143.90;88.85;75689.09;4926282;28;102360;-74
2023/09/16 00:51:13;;;;;;;;;1.00;1.00;;;;;-143.90;89.28;75684.97;4942490;28;102284;-73
2023/09/16 00:53:44;;;;;;;;;1.00;1.00;;;;;-143.90;88.95;75693.25;4933982;28;102437;-74
2023/09/16 00:56:13;;;;;;;;;2.75;2.00;;;;;-143.90;89.35;75691.16;4926547;28;108393;-74
2023/09/16 00:58:41;;;;;;;;;1.50;1.50;;;;;-143.90;89.48;75689.09;4928742;28;102002;-74
2023/09/16 01:01:09;;;;;;;;;2.00;1.00;;;;;-143.90;88.72;75701.50;4924241;28;102202;-73
2023/09/16 01:03:37;;;;;;;;;0.50;0.50;;;;;-143.90;88.31;75713.91;4928936;28;103514;-73
2023/09/16 01:06:05;;;;;;;;;1.00;1.00;;;;;-143.90;87.83;75715.97;4928598;28;103305;-73
2023/09/16 01:08:34;;;;;;;;;1.75;1.00;;;;;-143.90;88.57;75709.78;4908631;28;102213;-73
2023/09/16 01:11:05;;;;;;;;;2.00;2.00;;;;;-143.90;87.35;75713.91;4921573;28;102192;-74
2023/09/16 01:13:36;;;;;;;;;0.50;0.50;;;;;-143.90;87.56;75724.25;4927549;28;102268;-74
2023/09/16 01:16:41;;;;;;;;;0.00;0.00;;;;;-143.90;88.19;75730.47;4919734;28;104173;-74
2023/09/16 01:19:20;;;;;;;;;0.00;0.00;;;;;-143.90;88.32;75734.59;4917844;28;102018;-73
2023/09/16 01:21:48;;;;;;;;;1.00;1.00;;;;;-143.90;88.55;75744.94;4920145;28;101993;-73
2023/09/16 01:24:20;;;;;;;;;1.00;1.00;;;;;-143.90;88.79;75736.66;4934804;28;102026;-73
2023/09/16 01:26:47;;;;;;;;;0.00;0.00;;;;;-143.90;88.85;75742.88;4930139;28;103046;-74
2023/09/16 01:29:16;;;;;;;;;1.00;1.00;;;;;-143.90;88.22;75749.06;4927133;28;102144;-72
2023/09/16 01:31:44;;;;;;;;;0.75;0.75;;;;;-143.90;87.72;75751.13;4929953;28;102272;-73
2023/09/16 01:34:31;;;;;;;;;1.00;1.00;;;;;-143.90;87.62;75761.47;4931033;28;102823;-74
2023/09/16 01:36:59;;;;;;;;;1.00;1.00;;;;;-143.90;87.61;75765.59;4922032;28;107713;-73
2023/09/16 01:39:29;;;;;;;;;1.00;1.00;;;;;-143.90;88.43;75771.81;4937170;28;102535;-73
2023/09/16 01:41:59;;;;;;;;;1.00;1.00;;;;;-143.90;88.40;75773.88;4926300;28;103026;-73
2023/09/16 01:44:26;;;;;;;;;1.25;1.25;;;;;-143.90;90.34;75794.56;4928493;28;102490;-73
2023/09/16 01:46:55;;;;;;;;;1.00;1.00;;;;;-143.90;90.76;75780.09;4931100;28;104437;-73
2023/09/16 01:49:23;;;;;;;;;1.25;1.25;;;;;-143.90;91.84;75782.16;4933027;28;102179;-73
2023/09/16 01:51:50;;;;;;;;;2.00;1.75;;;;;-143.90;92.47;75788.34;4930910;28;101984;-73
2023/09/16 01:54:17;;;;;;;;;1.75;1.75;;;;;-143.90;93.09;75782.16;4921258;28;102478;-74
2023/09/16 01:56:45;;;;;;;;;0.00;0.00;;;;;-143.90;92.92;75794.56;4919655;28;104302;-73
2023/09/16 01:59:12;;;;;;;;;2.00;1.25;;;;;-143.90;93.68;75800.75;4924314;28;102409;-73
2023/09/16 02:01:38;;;;;;;;;3.00;2.50;;;;;-143.90;93.05;75788.34;4925634;28;102144;-74
2023/09/16 02:04:06;;;;;;;;;2.00;2.00;;;;;-143.90;93.13;75796.63;4920905;28;102714;-73
2023/09/16 02:06:34;;;;;;;;;2.50;2.50;;;;;-143.90;92.66;75794.56;4944965;28;105705;-72
2023/09/16 02:09:00;;;;;;;;;2.00;2.00;;;;;-143.90;92.50;75794.56;4928017;28;102086;-73
2023/09/16 02:11:27;;;;;;;;;1.00;1.00;;;;;-143.90;93.03;75800.75;4933702;28;102962;-74
2023/09/16 02:13:54;;;;;;;;;3.25;3.00;;;;;-143.90;93.87;75819.38;4926418;28;102430;-73
2023/09/16 02:16:21;;;;;;;;;4.25;4.00;;;;;-143.90;94.01;75809.03;4930455;28;105164;-73
2023/09/16 02:18:48;;;;;;;;;3.00;3.00;;;;;-143.90;93.93;75817.31;4928510;28;101990;-73
2023/09/16 02:21:15;;;;;;;;;5.50;5.50;;;;;-143.90;93.42;75821.44;4942498;28;102445;-74
2023/09/16 02:23:42;;;;;;;;;5.25;3.75;;;;;-143.90;93.62;75846.25;4931571;28;102376;-73
2023/09/16 02:26:09;;;;;;;;;5.75;4.25;;;;;-143.90;93.59;75842.13;4943356;28;104050;-73
2023/09/16 02:28:36;;;;;;;;;4.00;3.00;;;;;-143.90;94.03;75848.31;4919838;28;102323;-73
2023/09/16 02:31:03;;;;;;;;;4.75;4.75;;;;;-143.90;94.85;75873.13;4926877;28;101972;-73
2023/09/16 02:33:30;;;;;;;;;4.50;3.00;;;;;-143.90;95.26;75871.06;4927810;28;102362;-73
2023/09/16 02:35:57;;;;;;;;;5.25;4.00;;;;;-143.90;95.74;75856.59;4926008;28;103742;-72
2023/09/16 02:38:23;;;;;;;;;2.00;2.00;;;;;-143.90;95.42;75860.72;4923176;28;102242;-72
2023/09/16 02:40:50;;;;;;;;;2.25;2.00;;;;;-143.90;95.69;75856.59;4912249;28;102055;-73
2023/09/16 02:43:17;;;;;;;;;1.50;1.50;;;;;-143.90;95.72;75856.59;4929108;28;101994;-74
2023/09/16 02:45:44;;;;;;;;;1.00;1.00;;;;;-143.90;95.10;75842.13;4919672;28;105325;-73
2023/09/16 02:48:11;;;;;;;;;2.00;1.00;;;;;-143.90;94.63;75837.97;4915848;28;102418;-73
2023/09/16 02:50:38;;;;;;;;;2.25;1.00;;;;;-143.90;94.28;75833.84;4928657;28;101972;-72
2023/09/16 02:53:06;;;;;;;;;0.00;0.00;;;;;-143.90;93.95;75821.44;4919940;28;102362;-73
2023/09/16 02:55:33;;;;;;;;;1.25;1.00;;;;;-143.90;93.39;75842.13;4916964;28;103975;-74
2023/09/16 02:58:00;;;;;;;;;1.00;1.00;;;;;-143.90;93.41;75831.78;4930696;28;103245;-74
2023/09/16 03:00:27;;;;;;;;;1.00;1.00;;;;;-143.90;92.99;75825.56;4920247;28;102291;-75
2023/09/16 03:02:54;;;;;;;;;1.75;1.00;;;;;-143.90;94.07;75835.91;4908066;28;102332;-74
2023/09/16 03:05:21;;;;;;;;;0.00;0.00;;;;;-143.90;94.96;75833.84;4927403;28;104631;-73
2023/09/16 03:07:48;;;;;;;;;2.00;2.00;;;;;-143.90;94.72;75819.38;4935445;28;102194;-74
2023/09/16 03:10:15;;;;;;;;;0.25;0.25;;;;;-143.90;94.70;75835.91;4927753;28;102361;-72
2023/09/16 03:12:43;;;;;;;;;1.25;1.25;;;;;-143.90;95.54;75837.97;4923508;28;102508;-73
2023/09/16 03:15:11;;;;;;;;;4.25;4.00;;;;;-143.90;96.15;75835.91;4922886;28;105242;-73
2023/09/16 03:17:38;;;;;;;;;4.75;3.50;;;;;-143.90;96.55;75846.25;4919809;28;102298;-72
2023/09/16 03:20:13;;;;;;;;;4.00;3.00;;;;;-143.90;97.34;75860.72;4924880;28;102161;-74
2023/09/16 03:22:40;;;;;;;;;4.00;4.00;;;;;-143.90;97.85;75852.44;4907409;28;103327;-74
2023/09/16 03:25:07;;;;;;;;;5.00;4.00;;;;;-143.90;98.13;75850.38;4908724;28;103978;-74
2023/09/16 03:27:36;;;;;;;;;2.00;1.50;;;;;-143.90;99.35;75842.13;4927131;28;101876;-73
2023/09/16 03:30:04;;;;;;;;;3.00;2.00;;;;;-143.90;99.58;75827.63;4893331;28;104485;-73
2023/09/16 03:32:32;;;;;;;;;1.50;1.50;;;;;-143.90;99.28;75813.16;4914093;28;102393;-72
2023/09/16 03:34:58;;;;;;;;;1.25;1.25;;;;;-143.90;99.29;75800.75;4912656;28;104449;-74
2023/09/16 03:37:25;;;;;;;;;2.00;1.00;;;;;-143.90;98.90;75792.50;4934600;28;104406;-73
2023/09/16 03:39:52;;;;;;;;;2.00;1.00;;;;;-143.90;98.48;75786.28;4930394;28;102248;-75
2023/09/16 03:42:19;;;;;;;;;0.00;0.00;;;;;-143.90;98.46;75771.81;4929805;28;103708;-74
2023/09/16 03:44:46;;;;;;;;;0.50;0.50;;;;;-143.90;98.20;75763.53;4929456;28;103893;-74
2023/09/16 03:47:13;;;;;;;;;0.75;0.75;;;;;-143.90;97.74;75763.53;4928811;28;102432;-73
2023/09/16 03:49:42;;;;;;;;;1.25;1.25;;;;;-143.90;97.22;75753.19;4925773;28;102042;-74
2023/09/16 03:52:09;;;;;;;;;1.75;1.75;;;;;-143.90;97.18;75757.34;4925672;28;102896;-74
2023/09/16 03:54:36;;;;;;;;;1.00;1.00;;;;;-143.90;97.37;75742.88;4920421;28;103138;-73
2023/09/16 03:57:03;;;;;;;;;1.25;0.75;;;;;-143.90;97.03;75742.88;4910388;28;103383;-73
2023/09/16 03:59:30;;;;;;;;;0.00;0.00;;;;;-143.90;96.48;75736.66;4906929;28;102266;-73
2023/09/16 04:01:57;;;;;;;;;0.75;0.75;;;;;-143.90;96.27;75732.53;4890513;28;102085;-73
2023/09/16 04:04:24;;;;;;;;;1.00;1.00;;;;;-143.90;95.71;75724.25;4918522;28;104429;-73
2023/09/16 04:06:53;;;;;;;;;0.00;0.00;;;;;-143.90;95.36;75738.72;4904516;28;102304;-73
2023/09/16 04:09:20;;;;;;;;;0.00;0.00;;;;;-143.90;95.42;75734.59;4918652;28;104020;-74
2023/09/16 04:11:47;;;;;;;;;0.25;0.00;;;;;-143.90;95.26;75730.47;4925123;28;102072;-74
2023/09/16 04:14:14;;;;;;;;;0.00;0.00;;;;;-143.90;94.76;75730.47;4923547;28;108916;-74
2023/09/16 04:16:41;;;;;;;;;0.00;0.00;;;;;-143.90;94.58;75720.13;4922537;28;102089;-74
2023/09/16 04:19:08;;;;;;;;;0.00;0.00;;;;;-143.90;94.57;75726.31;4926276;28;101989;-74
2023/09/16 04:21:37;;;;;;;;;1.00;1.00;;;;;-143.90;94.89;75720.13;4931053;28;103235;-74
2023/09/16 04:24:04;;;;;;;;;1.00;1.00;;;;;-143.90;95.36;75726.31;4922934;28;105145;-73
2023/09/16 04:26:32;;;;;;;;;0.50;0.50;;;;;-143.90;95.19;75722.19;4927478;28;102265;-73
2023/09/16 04:28:59;;;;;;;;;0.00;0.00;;;;;-143.90;94.61;75715.97;4883250;28;101926;-74
2023/09/16 04:31:27;;;;;;;;;0.00;0.00;;;;;-143.90;94.58;75724.25;4925885;28;103768;-74
2023/09/16 04:33:54;;;;;;;;;0.00;0.00;;;;;-143.90;94.28;75713.91;4919820;28;103169;-73
2023/09/16 04:36:23;;;;;;;;;0.00;0.00;;;;;-143.90;94.34;75713.91;4912185;28;102144;-74
2023/09/16 04:38:50;;;;;;;;;0.00;0.00;;;;;-143.90;93.56;75724.25;4919040;28;102018;-75
2023/09/16 04:41:20;;;;;;;;;0.00;0.00;;;;;-143.90;93.63;75742.88;4915651;28;103483;-74
2023/09/16 04:43:49;;;;;;;;;0.00;0.00;;;;;-143.90;93.71;75736.66;4922875;28;109491;-73
2023/09/16 04:46:18;;;;;;;;;0.75;0.00;;;;;-143.90;93.98;75740.78;4947498;28;102987;-74
2023/09/16 04:48:46;;;;;;;;;2.00;2.00;;;;;-143.90;97.36;75755.28;4933463;28;102417;-73
2023/09/16 04:51:14;;;;;;;;;4.00;3.50;;;;;-143.90;99.01;75749.06;4910138;28;102193;-73
2023/09/16 04:53:41;;;;;;;;;1.50;1.00;;;;;-143.90;99.91;75728.38;4931638;28;103994;-73
2023/09/16 04:56:10;;;;;;;;;1.00;1.00;;;;;-143.90;99.23;75724.25;4897613;28;105407;-72
2023/09/16 04:58:37;;;;;;;;;2.00;2.00;;;;;-143.90;99.07;75713.91;4921590;28;102523;-73
2023/09/16 05:01:07;;;;;;;;;0.50;0.50;;;;;-143.90;98.79;75705.66;4916945;28;102066;-73
2023/09/16 05:03:34;;;;;;;;;1.00;1.00;;;;;-143.90;98.02;75705.66;4919223;28;105235;-73
2023/09/16 05:06:01;;;;;;;;;1.00;0.00;;;;;-143.90;97.18;75695.31;4928540;28;102372;-74
2023/09/16 05:08:31;;;;;;;;;1.00;1.00;;;;;-143.90;97.39;75693.25;4934241;28;101803;-74
2023/09/16 05:10:58;;;;;;;;;0.00;0.00;;;;;-143.90;97.75;75699.44;4924098;28;104169;-75
2023/09/16 05:13:24;;;;;;;;;1.00;1.00;;;;;-143.90;98.12;75691.16;4923993;28;104404;-74
2023/09/16 05:15:51;;;;;;;;;0.25;0.25;;;;;-143.90;98.31;75676.69;4927701;28;102124;-73
2023/09/16 05:18:18;;;;;;;;;3.00;3.00;;;;;-143.90;98.65;75682.91;4929656;28;102363;-73
2023/09/16 05:20:51;;;;;;;;;6.00;4.00;;;;;-143.90;99.04;75664.28;4908788;28;102301;-73
2023/09/16 05:23:23;;;;;;;;;2.00;2.00;;;;;-143.90;99.28;75651.88;4887413;28;109367;-73
2023/09/16 05:25:50;;;;;;;;;3.75;3.00;;;;;-143.90;98.75;75637.41;4923041;28;102111;-72
2023/09/16 05:28:17;;;;;;;;;5.25;4.00;;;;;-143.90;98.09;75618.81;4909375;28;102723;-73
2023/09/16 05:30:44;;;;;;;;;3.75;3.25;;;;;-143.90;98.51;75610.53;4911704;28;102312;-74
2023/09/16 05:33:12;;;;;;;;;3.75;3.00;;;;;-143.90;98.09;75598.13;4889506;28;105690;-73
2023/09/16 05:35:40;;;;;;;;;4.75;4.25;;;;;-143.90;97.67;75587.78;4905074;28;103593;-74
2023/09/16 05:38:08;;;;;;;;;7.75;5.00;;;;;-143.90;97.27;75575.38;4927279;28;102489;-74
2023/09/16 05:40:38;;;;;;;;;4.00;4.00;;;;;-143.90;96.63;75552.63;4914734;28;102710;-73
2023/09/16 05:43:06;;;;;;;;;3.25;3.00;;;;;-143.90;96.27;75548.50;4889377;28;103088;-74
2023/09/16 05:45:36;;;;;;;;;4.00;3.00;;;;;-143.90;95.77;75544.38;4871120;28;102070;-73
2023/09/16 05:48:04;;;;;;;;;2.25;2.25;;;;;-143.90;95.05;75525.75;4915675;28;104538;-74
2023/09/16 05:50:31;;;;;;;;;3.00;2.00;;;;;-143.90;94.83;75513.34;4925549;28;102102;-74
2023/09/16 05:52:58;;;;;;;;;2.00;1.00;;;;;-143.90;95.23;75498.88;4919003;28;103877;-73
2023/09/16 05:55:28;;;;;;;;;4.00;4.00;;;;;-143.90;94.02;75494.75;4924981;28;102547;-74
2023/09/16 05:57:55;;;;;;;;;6.00;6.00;;;;;-143.90;93.47;75469.94;4910166;28;102084;-73
2023/09/16 06:00:22;;;;;;;;;4.00;4.00;;;;;-143.90;92.75;75463.72;4908975;28;102134;-73
2023/09/16 06:02:48;;;;;;;;;3.00;2.75;;;;;-143.90;92.94;75441.00;4872044;28;104234;-73
2023/09/16 06:05:18;;;;;;;;;4.00;4.00;;;;;-143.90;93.76;75449.25;4900878;28;102015;-74
2023/09/16 06:07:45;;;;;;;;;4.00;4.00;;;;;-143.90;92.98;75416.19;4870550;28;102371;-73
2023/09/16 06:10:12;;;;;;;;;4.75;4.75;;;;;-143.90;92.38;75416.19;4922239;28;102137;-74
2023/09/16 06:12:39;;;;;;;;;7.00;7.00;;;;;-143.90;92.16;75401.72;4886612;28;102941;-74
2023/09/16 06:15:07;;;;;;;;;3.25;3.25;;;;;-143.90;91.91;75378.97;4930110;28;102529;-72
2023/09/16 06:17:34;;;;;;;;;10.75;10.00;;;;;-143.90;88.81;75358.28;4894147;28;102101;-74
2023/09/16 06:20:01;;;;;;;;;7.00;6.00;;;;;-143.90;89.90;75325.22;4888016;28;102264;-73
2023/09/16 06:22:28;;;;;;;;;6.00;5.25;;;;;-143.90;88.41;75285.94;4917206;28;102814;-72
2023/09/16 06:24:55;;;;;;;;;7.00;7.00;;;;;-143.90;87.32;75259.06;4900816;28;102117;-73
2023/09/16 06:27:22;;;;;;;;;5.50;4.00;;;;;-143.90;85.19;75228.03;4910637;28;102353;-73
2023/09/16 06:29:50;;;;;;;;;11.25;11.00;;;;;-143.90;84.21;75190.81;4865868;28;102063;-73
2023/09/16 06:32:18;;;;;;;;;7.25;4.00;;;;;-143.90;84.58;75159.81;4918185;28;105666;-73
2023/09/16 06:34:46;;;;;;;;;8.75;7.75;;;;;-143.90;84.08;75151.53;4890604;28;101977;-74
2023/09/16 06:37:13;;;;;;;;;5.75;5.25;;;;;-143.90;82.55;75118.47;4892865;28;102206;-73
2023/09/16 06:39:40;;;;;;;;;5.00;4.50;;;;;-143.90;81.88;75110.19;4891033;28;103452;-74
2023/09/16 06:42:07;;;;;;;;;5.00;5.00;;;;;-143.90;82.03;75097.78;4919099;28;104458;-73
2023/09/16 06:44:34;;;;;;;;;7.00;6.00;;;;;-143.90;82.16;75072.97;4890138;28;102061;-73
2023/09/16 06:47:00;;;;;;;;;7.00;6.75;;;;;-143.90;79.46;75060.59;4887760;28;102466;-72
2023/09/16 06:49:31;;;;;;;;;8.00;7.00;;;;;-143.90;80.93;75062.66;4878354;28;101972;-73
2023/09/16 06:51:58;;;;;;;;;4.00;4.00;;;;;-143.90;80.06;75046.09;4898255;28;104423;-73
2023/09/16 06:54:26;;;;;;;;;5.25;5.25;;;;;-143.90;80.14;75015.09;4886821;28;102233;-74
2023/09/16 06:56:53;;;;;;;;;8.25;8.25;;;;;-143.90;79.73;75025.44;4920297;28;104425;-73
2023/09/16 06:59:20;;;;;;;;;7.75;5.25;;;;;-143.90;78.58;74994.44;4891871;28;102164;-71
2023/09/16 07:01:47;;;;;;;;;5.50;5.00;;;;;-143.90;78.63;74961.34;4877476;28;102902;-74
2023/09/16 07:04:14;;;;;;;;;6.00;6.00;;;;;-143.90;76.75;74973.75;4909136;28;102016;-73
2023/09/16 07:06:42;;;;;;;;;8.75;6.00;;;;;-143.90;77.78;74957.22;4927156;28;102083;-72
2023/09/16 07:09:10;;;;;;;;;6.00;6.00;;;;;-143.90;78.73;74920.00;4910476;28;102574;-74
2023/09/16 07:11:37;;;;;;;;;7.75;7.75;;;;;-143.90;76.90;74928.28;4918817;28;103205;-74
2023/09/16 07:14:04;;;;;;;;;5.25;3.75;;;;;-143.90;76.94;74920.00;4924664;28;101921;-73
2023/09/16 07:16:36;;;;;;;;;5.00;5.00;;;;;-143.90;77.32;74913.81;4888579;28;102082;-73
2023/09/16 07:19:04;;;;;;;;;6.75;6.00;;;;;-143.90;76.46;74901.41;4910444;28;102655;-73
2023/09/16 07:21:31;;;;;;;;;5.00;5.00;;;;;-143.90;77.46;74905.53;4926076;28;105028;-74
2023/09/16 07:24:02;;;;;;;;;5.33;5.33;;;;;-143.90;75.93;74862.13;4913734;28;102175;-74
2023/09/16 07:26:29;;;;;;;;;9.75;9.75;;;;;-143.90;75.56;74870.38;4923901;28;102066;-73
2023/09/16 07:28:57;;;;;;;;;7.50;7.50;;;;;-143.90;75.96;74855.91;4903487;28;103122;-74
2023/09/16 07:31:24;;;;;;;;;6.00;6.00;;;;;-143.90;74.49;74849.72;4906789;28;104100;-73
2023/09/16 07:33:51;;;;;;;;;9.00;7.50;;;;;-143.90;73.22;74843.53;4909773;28;102687;-74
2023/09/16 07:36:18;;;;;;;;;4.67;4.33;;;;;-143.90;73.84;74833.19;4916364;28;102487;-74
2023/09/16 07:38:45;;;;;;;;;6.00;5.00;;;;;-143.90;73.60;74824.91;4908524;28;102520;-74
2023/09/16 07:41:14;;;;;;;;;4.00;4.00;;;;;-143.90;75.18;74800.09;4892634;28;104401;-74
2023/09/16 07:43:41;;;;;;;;;4.00;4.00;;;;;-143.90;74.08;74783.56;4918107;28;102426;-73
2023/09/16 07:46:08;;;;;;;;;4.67;2.00;;;;;-143.90;71.79;74756.69;4900313;28;102352;-74
2023/09/16 07:48:34;;;;;;;;;2.00;2.00;;;;;-143.90;71.45;74736.03;4926636;28;102199;-74
2023/09/16 07:51:03;;;;;;;;;2.00;2.00;;;;;-143.90;71.23;74717.41;4918774;28;105106;-72
2023/09/16 07:53:30;;;;;;;;;1.00;1.00;;;;;-143.90;70.54;74698.81;4901135;28;102695;-74
2023/09/16 07:55:59;;;;;;;;;1.33;1.00;;;;;-143.90;68.87;74700.88;4909027;28;101961;-74
2023/09/16 07:58:26;;;;;;;;;1.33;1.00;;;;;-143.90;68.71;74674.00;4919868;28;102419;-73
2023/09/16 08:00:53;;;;;;;;;4.00;4.00;;;;;-143.90;68.37;74688.47;4913042;28;103595;-73
2023/09/16 08:03:21;;;;;;;;;6.00;5.00;;;;;-143.90;68.11;74674.00;4879723;28;102542;-73
2023/09/16 08:05:53;;;;;;;;;3.00;3.00;;;;;-143.90;68.42;74638.88;4893681;28;102899;-73
2023/09/16 08:08:20;;;;;;;;;3.00;3.00;;;;;-143.90;67.63;74630.59;4890401;28;102018;-73
2023/09/16 08:10:51;;;;;;;;;2.00;2.00;;;;;-143.90;68.00;74609.94;4877014;28;107369;-73
2023/09/16 08:13:18;;;;;;;;;5.67;4.00;;;;;-143.90;66.64;74616.13;4910233;28;102274;-74
2023/09/16 08:15:45;;;;;;;;;2.00;1.00;;;;;-143.90;65.52;74605.78;4891017;28;101930;-73
2023/09/16 08:18:12;;;;;;;;;3.33;3.00;;;;;-143.90;66.93;74593.38;4903901;28;102027;-74
2023/09/16 08:20:39;;;;;;;;;2.00;1.33;;;;;-143.90;65.58;74572.72;4906560;28;105096;-74
2023/09/16 08:23:08;;;;;;;;;1.67;1.67;;;;;-143.90;64.95;74585.13;4904597;28;102356;-74
2023/09/16 08:25:35;;;;;;;;;5.00;5.00;;;;;-143.90;65.56;74609.94;4889681;28;102147;-74
2023/09/16 08:28:02;;;;;;;;;6.00;5.33;;;;;-143.90;65.88;74618.19;4866437;28;103523;-72
2023/09/16 08:30:30;;;;;;;;;6.00;6.00;;;;;-143.90;66.01;74597.53;4877815;28;106300;-74
2023/09/16 08:32:57;;;;;;;;;5.00;4.00;;;;;-143.90;67.24;74572.72;4917992;28;102159;-74
2023/09/16 08:35:26;;;;;;;;;9.00;9.00;;;;;-143.90;67.27;74622.34;4914699;28;102316;-73
2023/09/16 08:37:58;;;;;;;;;6.33;6.33;;;;;-143.90;66.12;74595.47;4857274;28;102488;-73
2023/09/16 08:40:29;;;;;;;;;6.00;6.00;;;;;-143.90;67.18;74593.38;4871876;28;104113;-74
2023/09/16 08:43:21;;;;;;;;;4.00;4.00;;;;;-143.90;64.96;74552.03;4916942;28;102098;-73
2023/09/16 08:45:59;;;;;;;;;4.00;4.00;;;;;-143.90;60.46;74566.53;4923348;28;103217;-73
2023/09/16 08:48:32;;;;;;;;;4.00;3.00;;;;;-143.90;62.29;74554.13;4911770;28;102785;-73
2023/09/16 08:51:04;;;;;;;;;3.00;3.00;;;;;-143.90;63.18;74518.97;4896846;28;104138;-75
2023/09/16 08:53:35;;;;;;;;;3.00;2.00;;;;;-143.90;64.55;74502.44;4902216;28;102453;-73
2023/09/16 08:56:04;;;;;;;;;3.00;2.33;;;;;-143.90;62.91;74498.31;4870616;28;102361;-74
2023/09/16 08:58:39;;;;;;;;;4.00;4.00;;;;;-143.90;61.58;74485.91;4866218;28;102069;-74
2023/09/16 09:01:31;;;;;;;;;3.00;3.00;;;;;-143.90;61.99;74469.38;4820188;28;108021;-73
2023/09/16 09:04:00;;;;;;;;;2.33;2.33;;;;;-143.90;62.15;74461.09;4863121;28;102271;-74
2023/09/16 09:06:29;;;;;;;;;2.33;2.33;;;;;-143.90;60.44;74456.97;4901698;28;102292;-74
2023/09/16 09:09:07;;;;;;;;;1.00;1.00;;;;;-143.90;59.47;74434.22;4900005;28;104092;-74
2023/09/16 09:11:35;;;;;;;;;2.00;2.00;;;;;-143.90;61.18;74436.28;4913087;28;104013;-74
2023/09/16 09:14:03;;;;;;;;;2.00;2.00;;;;;-143.90;61.81;74415.63;4864203;28;102294;-73
2023/09/16 09:16:34;;;;;;;;;2.33;2.33;;;;;-143.90;63.29;74415.63;4918109;28;103226;-73
2023/09/16 09:19:01;;;;;;;;;6.00;5.33;;;;;-143.90;59.63;74454.91;4918101;28;102376;-74
2023/09/16 09:21:29;;;;;;;;;7.00;6.67;;;;;-143.90;62.06;74459.03;4917223;28;104195;-74
2023/09/16 09:23:58;;;;;;;;;5.00;4.00;;;;;-143.90;62.17;74440.44;4900788;28;102827;-74
2023/09/16 09:26:27;;;;;;;;;3.00;2.00;;;;;-143.90;61.91;74423.88;4903825;28;102324;-75
2023/09/16 09:28:58;;;;;;;;;3.00;3.00;;;;;-143.90;61.36;74388.75;4871035;28;104797;-74
2023/09/16 09:31:25;;;;;;;;;2.33;2.33;;;;;-143.90;60.25;74376.34;4872886;28;104208;-75
2023/09/16 09:33:53;;;;;;;;;3.00;2.33;;;;;-143.90;61.09;74363.94;4875840;28;105582;-73
2023/09/16 09:36:20;;;;;;;;;3.00;2.00;;;;;-143.90;59.17;74345.34;4882072;28;103593;-75
2023/09/16 09:38:48;;;;;;;;;5.67;5.67;;;;;-143.90;59.46;74347.41;4917828;28;102096;-74
2023/09/16 09:41:16;;;;;;;;;5.00;5.00;;;;;-143.90;58.77;74347.41;4921085;28;103951;-73
2023/09/16 09:43:42;;;;;;;;;3.67;3.67;;;;;-143.90;57.02;74320.53;4911819;28;105361;-74
2023/09/16 09:46:10;;;;;;;;;3.33;3.33;;;;;-143.90;58.81;74316.41;4908198;28;102010;-73
2023/09/16 09:48:38;;;;;;;;;2.00;2.00;;;;;-143.90;59.03;74308.13;4929729;28;102461;-73
2023/09/16 09:51:08;;;;;;;;;3.00;2.67;;;;;-143.90;59.05;74293.66;4890967;28;105454;-74
2023/09/16 09:53:38;;;;;;;;;4.00;1.67;;;;;-143.90;58.47;74299.88;4878668;28;102026;-75
2023/09/16 09:56:05;;;;;;;;;3.00;3.00;;;;;-143.90;58.65;74285.41;4900912;28;103051;-75
2023/09/16 09:58:32;;;;;;;;;3.33;1.67;;;;;-143.90;59.67;74297.81;4923226;28;102499;-75
2023/09/16 10:01:01;;;;;;;;;4.67;3.33;;;;;-143.90;58.97;74287.47;4893664;28;103476;-73
2023/09/16 10:03:31;;;;;;;;;3.00;3.00;;;;;-143.90;56.66;74287.47;4880683;28;102532;-74
2023/09/16 10:05:58;;;;;;;;;3.00;3.00;;;;;-143.90;60.52;74273.00;4900809;28;102344;-75
2023/09/16 10:08:27;;;;;;;;;3.00;2.00;;;;;-143.90;56.18;74256.47;4918030;28;102183;-74
2023/09/16 10:10:54;;;;;;;;;0.67;0.67;;;;;-143.90;57.49;74258.53;4901429;28;105120;-76
2023/09/16 10:13:22;;;;;;;;;2.67;2.33;;;;;-143.90;55.09;74244.06;4913640;28;101842;-75
2023/09/16 10:15:49;;;;;;;;;4.00;3.33;;;;;-143.90;55.87;74262.66;4907915;28;102275;-75
2023/09/16 10:18:18;;;;;;;;;5.00;4.00;;;;;-143.90;57.27;74289.53;4922482;28;103311;-75
2023/09/16 10:20:47;;;;;;;;;4.00;4.00;;;;;-143.90;56.43;74254.41;4927935;28;103873;-74
2023/09/16 10:23:14;;;;;;;;;3.33;3.33;;;;;-143.90;55.65;74244.06;4904199;28;108171;-74
2023/09/16 10:25:41;;;;;;;;;3.00;3.00;;;;;-143.90;57.96;74229.59;4891702;28;102482;-73
2023/09/16 10:28:12;;;;;;;;;3.00;2.00;;;;;-143.90;55.38;74211.00;4909352;28;102486;-75
2023/09/16 10:30:40;;;;;;;;;4.00;4.00;;;;;-143.90;55.97;74208.94;4907522;28;104070;-74
2023/09/16 10:33:10;;;;;;;;;3.67;3.67;;;;;-143.90;53.48;74196.53;4902215;28;102292;-74
2023/09/16 10:35:40;;;;;;;;;2.00;2.00;;;;;-143.90;53.26;74192.41;4894425;28;105432;-75
2023/09/16 10:38:10;;;;;;;;;2.33;2.33;;;;;-143.90;55.75;74202.72;4908293;28;102385;-75
2023/09/16 10:40:40;;;;;;;;;5.00;5.00;;;;;-143.90;54.61;74215.13;4905736;28;103927;-74
2023/09/16 10:43:07;;;;;;;;;3.67;3.67;;;;;-143.90;56.52;74204.78;4906669;28;102429;-72
2023/09/16 10:45:37;;;;;;;;;3.33;3.00;;;;;-143.90;56.24;74184.13;4908370;28;102071;-75
2023/09/16 10:48:05;;;;;;;;;5.33;5.33;;;;;-143.90;55.30;74180.00;4898369;28;102080;-75
2023/09/16 10:50:37;;;;;;;;;3.00;3.00;;;;;-143.90;56.99;74169.66;4898578;28;104132;-76
2023/09/16 10:53:12;;;;;;;;;3.00;3.00;;;;;-143.90;54.56;74155.19;4907589;28;102069;-75
2023/09/16 10:55:51;;;;;;;;;3.00;3.00;;;;;-143.90;57.87;74171.72;4906877;28;103807;-83
2023/09/16 10:58:47;;;;;;;;;4.33;4.33;;;;;-143.90;55.40;74151.06;4915198;28;102254;-78
2023/09/16 11:01:42;;;;;;;;;4.67;4.67;;;;;-143.90;53.46;74138.66;4885531;28;108944;-77
2023/09/16 11:04:15;;;;;;;;;4.00;4.00;;;;;-143.90;57.02;74142.78;4883927;28;102486;-74
2023/09/16 11:06:50;;;;;;;;;6.33;4.67;;;;;-143.90;55.30;74134.53;4921019;28;102702;-74
2023/09/16 11:09:22;;;;;;;;;7.67;7.67;;;;;-143.90;55.72;74128.31;4871321;28;102468;-75
2023/09/16 11:11:50;;;;;;;;;5.00;4.67;;;;;-143.90;55.87;74118.00;4904661;28;108282;-75
2023/09/16 11:14:19;;;;;;;;;5.33;5.33;;;;;-143.90;55.70;74111.78;4889645;28;102476;-75
2023/09/16 11:16:49;;;;;;;;;6.67;6.00;;;;;-143.90;55.24;74107.66;4906862;28;102714;-74